sensor_id;sensor_type;location;lat;lon;timestamp;temperature;humidity
7232;DHT22;3657;49.630;11.018;2022-08-19T00:01:10;25.60;68.00
7232;DHT22;3657;49.630;11.018;2022-08-19T00:03:37;25.50;67.90
7232;DHT22;3657;49.630;11.018;2022-08-19T00:06:04;25.50;68.00
7232;DHT22;3657;49.630;11.018;2022-08-19T00:08:32;25.50;68.10
7232;DHT22;3657;49.630;11.018;2022-08-19T00:10:59;25.50;68.20
7232;DHT22;3657;49.630;11.018;2022-08-19T00:13:26;25.40;68.10
7232;DHT22;3657;49.630;11.018;2022-08-19T00:15:54;25.40;68.10
7232;DHT22;3657;49.630;11.018;2022-08-19T00:18:20;25.40;68.20
7232;DHT22;3657;49.630;11.018;2022-08-19T00:20:47;25.40;68.30
7232;DHT22;3657;49.630;11.018;2022-08-19T00:23:14;25.30;68.30
7232;DHT22;3657;49.630;11.018;2022-08-19T00:25:42;25.30;71.00
7232;DHT22;3657;49.630;11.018;2022-08-19T00:28:09;25.20;68.70
7232;DHT22;3657;49.630;11.018;2022-08-19T00:30:36;25.20;68.80
7232;DHT22;3657;49.630;11.018;2022-08-19T00:33:03;25.20;68.70
7232;DHT22;3657;49.630;11.018;2022-08-19T00:35:29;25.20;68.80
7232;DHT22;3657;49.630;11.018;2022-08-19T00:37:57;25.20;69.50
7232;DHT22;3657;49.630;11.018;2022-08-19T00:40:25;25.10;68.90
7232;DHT22;3657;49.630;11.018;2022-08-19T00:42:53;25.10;68.90
7232;DHT22;3657;49.630;11.018;2022-08-19T00:45:22;25.10;69.00
7232;DHT22;3657;49.630;11.018;2022-08-19T00:47:49;25.10;69.10
7232;DHT22;3657;49.630;11.018;2022-08-19T00:50:20;25.00;69.30
7232;DHT22;3657;49.630;11.018;2022-08-19T00:52:50;25.10;69.20
7232;DHT22;3657;49.630;11.018;2022-08-19T00:55:20;25.00;69.20
7232;DHT22;3657;49.630;11.018;2022-08-19T00:57:51;25.00;69.30
7232;DHT22;3657;49.630;11.018;2022-08-19T01:00:23;25.00;69.20
7232;DHT22;3657;49.630;11.018;2022-08-19T01:02:50;24.90;69.30
7232;DHT22;3657;49.630;11.018;2022-08-19T01:05:21;24.90;69.40
7232;DHT22;3657;49.630;11.018;2022-08-19T01:07:49;24.90;69.50
7232;DHT22;3657;49.630;11.018;2022-08-19T01:10:21;24.90;69.40
7232;DHT22;3657;49.630;11.018;2022-08-19T01:12:51;24.90;69.60
7232;DHT22;3657;49.630;11.018;2022-08-19T01:15:23;24.80;69.60
7232;DHT22;3657;49.630;11.018;2022-08-19T01:17:52;24.80;69.70
7232;DHT22;3657;49.630;11.018;2022-08-19T01:20:21;24.80;69.90
7232;DHT22;3657;49.630;11.018;2022-08-19T01:22:52;24.70;69.90
7232;DHT22;3657;49.630;11.018;2022-08-19T01:25:21;24.70;70.00
7232;DHT22;3657;49.630;11.018;2022-08-19T01:27:50;24.70;70.10
7232;DHT22;3657;49.630;11.018;2022-08-19T01:30:19;24.70;70.30
7232;DHT22;3657;49.630;11.018;2022-08-19T01:32:47;24.70;70.40
7232;DHT22;3657;49.630;11.018;2022-08-19T01:35:14;24.70;70.60
7232;DHT22;3657;49.630;11.018;2022-08-19T01:37:45;24.60;70.50
7232;DHT22;3657;49.630;11.018;2022-08-19T01:40:13;24.60;70.60
7232;DHT22;3657;49.630;11.018;2022-08-19T01:42:40;24.60;70.70
7232;DHT22;3657;49.630;11.018;2022-08-19T01:45:07;24.60;70.80
7232;DHT22;3657;49.630;11.018;2022-08-19T01:47:35;24.60;71.00
7232;DHT22;3657;49.630;11.018;2022-08-19T01:50:02;24.50;71.00
7232;DHT22;3657;49.630;11.018;2022-08-19T01:52:29;24.50;71.20
7232;DHT22;3657;49.630;11.018;2022-08-19T01:54:56;24.50;71.20
7232;DHT22;3657;49.630;11.018;2022-08-19T01:57:24;24.50;71.30
7232;DHT22;3657;49.630;11.018;2022-08-19T01:59:51;24.40;71.30
7232;DHT22;3657;49.630;11.018;2022-08-19T02:02:18;24.40;71.50
7232;DHT22;3657;49.630;11.018;2022-08-19T02:04:44;24.40;71.60
7232;DHT22;3657;49.630;11.018;2022-08-19T02:07:12;24.40;71.80
7232;DHT22;3657;49.630;11.018;2022-08-19T02:09:38;24.40;72.00
7232;DHT22;3657;49.630;11.018;2022-08-19T02:12:07;24.40;71.90
7232;DHT22;3657;49.630;11.018;2022-08-19T02:14:36;24.30;71.70
7232;DHT22;3657;49.630;11.018;2022-08-19T02:17:03;24.30;71.90
7232;DHT22;3657;49.630;11.018;2022-08-19T02:19:29;24.30;72.00
7232;DHT22;3657;49.630;11.018;2022-08-19T02:21:57;24.30;72.10
7232;DHT22;3657;49.630;11.018;2022-08-19T02:24:25;24.30;72.10
7232;DHT22;3657;49.630;11.018;2022-08-19T02:26:51;24.30;73.00
7232;DHT22;3657;49.630;11.018;2022-08-19T02:29:18;24.20;72.60
7232;DHT22;3657;49.630;11.018;2022-08-19T02:31:46;24.20;72.60
7232;DHT22;3657;49.630;11.018;2022-08-19T02:34:13;24.20;72.70
7232;DHT22;3657;49.630;11.018;2022-08-19T02:36:40;24.20;72.80
7232;DHT22;3657;49.630;11.018;2022-08-19T02:39:06;24.20;72.90
7232;DHT22;3657;49.630;11.018;2022-08-19T02:41:33;24.20;72.90
7232;DHT22;3657;49.630;11.018;2022-08-19T02:44:03;24.20;73.00
7232;DHT22;3657;49.630;11.018;2022-08-19T02:46:31;24.20;73.20
7232;DHT22;3657;49.630;11.018;2022-08-19T02:49:03;24.10;73.20
7232;DHT22;3657;49.630;11.018;2022-08-19T02:51:32;24.10;73.20
7232;DHT22;3657;49.630;11.018;2022-08-19T02:54:00;24.10;73.40
7232;DHT22;3657;49.630;11.018;2022-08-19T02:56:27;24.10;73.50
7232;DHT22;3657;49.630;11.018;2022-08-19T02:58:54;24.10;73.80
7232;DHT22;3657;49.630;11.018;2022-08-19T03:01:23;24.10;73.90
7232;DHT22;3657;49.630;11.018;2022-08-19T03:03:50;24.10;74.00
7232;DHT22;3657;49.630;11.018;2022-08-19T03:06:18;24.10;74.00
7232;DHT22;3657;49.630;11.018;2022-08-19T03:08:47;24.10;74.10
7232;DHT22;3657;49.630;11.018;2022-08-19T03:11:16;24.00;74.20
7232;DHT22;3657;49.630;11.018;2022-08-19T03:13:43;24.00;74.50
7232;DHT22;3657;49.630;11.018;2022-08-19T03:16:10;24.00;75.80
7232;DHT22;3657;49.630;11.018;2022-08-19T03:18:37;24.00;75.70
7232;DHT22;3657;49.630;11.018;2022-08-19T03:21:05;23.90;76.10
7232;DHT22;3657;49.630;11.018;2022-08-19T03:23:33;23.90;76.00
7232;DHT22;3657;49.630;11.018;2022-08-19T03:26:04;23.90;75.70
7232;DHT22;3657;49.630;11.018;2022-08-19T03:28:31;23.90;75.60
7232;DHT22;3657;49.630;11.018;2022-08-19T03:31:00;23.90;75.70
7232;DHT22;3657;49.630;11.018;2022-08-19T03:33:28;23.90;75.70
7232;DHT22;3657;49.630;11.018;2022-08-19T03:36:05;23.90;75.60
7232;DHT22;3657;49.630;11.018;2022-08-19T03:38:34;23.80;75.70
7232;DHT22;3657;49.630;11.018;2022-08-19T03:41:07;23.90;75.80
7232;DHT22;3657;49.630;11.018;2022-08-19T03:43:35;23.90;76.00
7232;DHT22;3657;49.630;11.018;2022-08-19T03:46:05;23.80;76.00
7232;DHT22;3657;49.630;11.018;2022-08-19T03:48:33;23.80;76.00
7232;DHT22;3657;49.630;11.018;2022-08-19T03:51:01;23.80;76.00
7232;DHT22;3657;49.630;11.018;2022-08-19T03:53:29;23.80;76.20
7232;DHT22;3657;49.630;11.018;2022-08-19T03:55:58;23.80;76.20
7232;DHT22;3657;49.630;11.018;2022-08-19T03:58:25;23.80;76.30
7232;DHT22;3657;49.630;11.018;2022-08-19T04:00:53;23.70;76.30
7232;DHT22;3657;49.630;11.018;2022-08-19T04:03:19;23.70;76.40
7232;DHT22;3657;49.630;11.018;2022-08-19T04:05:46;23.70;76.50
7232;DHT22;3657;49.630;11.018;2022-08-19T04:08:14;23.70;76.60
7232;DHT22;3657;49.630;11.018;2022-08-19T04:10:46;23.70;76.70
7232;DHT22;3657;49.630;11.018;2022-08-19T04:13:15;23.70;76.80
7232;DHT22;3657;49.630;11.018;2022-08-19T04:15:44;23.60;76.90
7232;DHT22;3657;49.630;11.018;2022-08-19T04:18:12;23.70;77.00
7232;DHT22;3657;49.630;11.018;2022-08-19T04:20:40;23.60;77.00
7232;DHT22;3657;49.630;11.018;2022-08-19T04:23:07;23.60;77.20
7232;DHT22;3657;49.630;11.018;2022-08-19T04:25:36;23.60;77.30
7232;DHT22;3657;49.630;11.018;2022-08-19T04:28:03;23.60;77.30
7232;DHT22;3657;49.630;11.018;2022-08-19T04:30:36;23.60;77.40
7232;DHT22;3657;49.630;11.018;2022-08-19T04:33:03;23.60;77.50
7232;DHT22;3657;49.630;11.018;2022-08-19T04:35:35;23.60;77.60
7232;DHT22;3657;49.630;11.018;2022-08-19T04:38:02;23.60;77.70
7232;DHT22;3657;49.630;11.018;2022-08-19T04:40:29;23.60;77.90
7232;DHT22;3657;49.630;11.018;2022-08-19T04:43:13;23.50;77.80
7232;DHT22;3657;49.630;11.018;2022-08-19T04:45:42;23.50;77.90
7232;DHT22;3657;49.630;11.018;2022-08-19T04:48:10;23.50;77.80
7232;DHT22;3657;49.630;11.018;2022-08-19T04:50:40;23.50;78.00
7232;DHT22;3657;49.630;11.018;2022-08-19T04:53:07;23.50;77.90
7232;DHT22;3657;49.630;11.018;2022-08-19T04:55:34;23.50;78.10
7232;DHT22;3657;49.630;11.018;2022-08-19T04:58:01;23.50;78.30
7232;DHT22;3657;49.630;11.018;2022-08-19T05:00:28;23.50;78.50
7232;DHT22;3657;49.630;11.018;2022-08-19T05:02:56;23.50;78.50
7232;DHT22;3657;49.630;11.018;2022-08-19T05:05:23;23.50;78.60
7232;DHT22;3657;49.630;11.018;2022-08-19T05:07:50;23.40;78.40
7232;DHT22;3657;49.630;11.018;2022-08-19T05:10:16;23.40;78.50
7232;DHT22;3657;49.630;11.018;2022-08-19T05:12:43;23.40;78.50
7232;DHT22;3657;49.630;11.018;2022-08-19T05:15:10;23.40;79.30
7232;DHT22;3657;49.630;11.018;2022-08-19T05:17:37;23.40;78.80
7232;DHT22;3657;49.630;11.018;2022-08-19T05:20:25;23.40;78.80
7232;DHT22;3657;49.630;11.018;2022-08-19T05:23:17;23.40;78.90
7232;DHT22;3657;49.630;11.018;2022-08-19T05:25:44;23.40;78.80
7232;DHT22;3657;49.630;11.018;2022-08-19T05:28:11;23.40;78.80
7232;DHT22;3657;49.630;11.018;2022-08-19T05:30:37;23.40;80.10
7232;DHT22;3657;49.630;11.018;2022-08-19T05:33:06;23.40;79.30
7232;DHT22;3657;49.630;11.018;2022-08-19T05:35:35;23.40;79.30
7232;DHT22;3657;49.630;11.018;2022-08-19T05:38:03;23.40;79.60
7232;DHT22;3657;49.630;11.018;2022-08-19T05:40:30;23.30;79.40
7232;DHT22;3657;49.630;11.018;2022-08-19T05:42:56;23.40;79.80
7232;DHT22;3657;49.630;11.018;2022-08-19T05:45:23;23.40;79.70
7232;DHT22;3657;49.630;11.018;2022-08-19T05:47:50;23.40;79.50
7232;DHT22;3657;49.630;11.018;2022-08-19T05:50:17;23.40;79.50
7232;DHT22;3657;49.630;11.018;2022-08-19T05:52:45;23.30;79.40
7232;DHT22;3657;49.630;11.018;2022-08-19T05:55:12;23.30;79.50
7232;DHT22;3657;49.630;11.018;2022-08-19T05:57:39;23.30;79.60
7232;DHT22;3657;49.630;11.018;2022-08-19T06:00:07;23.30;79.80
7232;DHT22;3657;49.630;11.018;2022-08-19T06:02:35;23.30;79.90
7232;DHT22;3657;49.630;11.018;2022-08-19T06:05:03;23.30;79.80
7232;DHT22;3657;49.630;11.018;2022-08-19T06:07:32;23.30;80.00
7232;DHT22;3657;49.630;11.018;2022-08-19T06:10:00;23.30;80.00
7232;DHT22;3657;49.630;11.018;2022-08-19T06:12:27;23.30;80.10
7232;DHT22;3657;49.630;11.018;2022-08-19T06:14:57;23.30;80.10
7232;DHT22;3657;49.630;11.018;2022-08-19T06:17:24;23.30;80.20
7232;DHT22;3657;49.630;11.018;2022-08-19T06:19:51;23.30;80.30
7232;DHT22;3657;49.630;11.018;2022-08-19T06:22:18;23.30;80.30
7232;DHT22;3657;49.630;11.018;2022-08-19T06:24:45;23.30;80.40
7232;DHT22;3657;49.630;11.018;2022-08-19T06:27:13;23.30;80.60
7232;DHT22;3657;49.630;11.018;2022-08-19T06:29:41;23.40;83.90
7232;DHT22;3657;49.630;11.018;2022-08-19T06:32:07;23.30;80.70
7232;DHT22;3657;49.630;11.018;2022-08-19T06:34:35;23.40;80.90
7232;DHT22;3657;49.630;11.018;2022-08-19T06:37:02;23.30;80.80
7232;DHT22;3657;49.630;11.018;2022-08-19T06:39:32;23.30;81.10
7232;DHT22;3657;49.630;11.018;2022-08-19T06:42:00;23.30;84.20
7232;DHT22;3657;49.630;11.018;2022-08-19T06:44:30;23.30;81.70
7232;DHT22;3657;49.630;11.018;2022-08-19T06:47:01;23.30;81.80
7232;DHT22;3657;49.630;11.018;2022-08-19T06:49:28;23.30;81.70
7232;DHT22;3657;49.630;11.018;2022-08-19T06:51:56;23.30;81.70
7232;DHT22;3657;49.630;11.018;2022-08-19T06:54:24;23.30;81.60
7232;DHT22;3657;49.630;11.018;2022-08-19T06:56:51;23.40;81.50
7232;DHT22;3657;49.630;11.018;2022-08-19T06:59:20;23.50;81.30
7232;DHT22;3657;49.630;11.018;2022-08-19T07:01:51;23.50;83.40
7232;DHT22;3657;49.630;11.018;2022-08-19T07:04:20;23.60;81.70
7232;DHT22;3657;49.630;11.018;2022-08-19T07:06:47;23.50;82.80
7232;DHT22;3657;49.630;11.018;2022-08-19T07:09:15;23.50;81.90
7232;DHT22;3657;49.630;11.018;2022-08-19T07:11:44;23.50;81.80
7232;DHT22;3657;49.630;11.018;2022-08-19T07:14:11;23.50;81.80
7232;DHT22;3657;49.630;11.018;2022-08-19T07:16:39;23.50;82.60
7232;DHT22;3657;49.630;11.018;2022-08-19T07:19:07;23.50;83.10
7232;DHT22;3657;49.630;11.018;2022-08-19T07:21:35;23.50;83.70
7232;DHT22;3657;49.630;11.018;2022-08-19T07:24:03;23.50;82.70
7232;DHT22;3657;49.630;11.018;2022-08-19T07:26:32;23.40;82.80
7232;DHT22;3657;49.630;11.018;2022-08-19T07:28:59;23.50;83.00
7232;DHT22;3657;49.630;11.018;2022-08-19T07:31:27;23.50;83.10
7232;DHT22;3657;49.630;11.018;2022-08-19T07:33:55;23.50;85.20
7232;DHT22;3657;49.630;11.018;2022-08-19T07:36:26;23.50;83.50
7232;DHT22;3657;49.630;11.018;2022-08-19T07:38:56;23.60;84.50
7232;DHT22;3657;49.630;11.018;2022-08-19T07:41:25;23.60;84.20
7232;DHT22;3657;49.630;11.018;2022-08-19T07:43:52;23.60;84.10
7232;DHT22;3657;49.630;11.018;2022-08-19T07:46:19;23.60;85.70
7232;DHT22;3657;49.630;11.018;2022-08-19T07:48:48;23.50;87.10
7232;DHT22;3657;49.630;11.018;2022-08-19T07:51:18;23.50;86.10
7232;DHT22;3657;49.630;11.018;2022-08-19T07:53:48;23.50;85.30
7232;DHT22;3657;49.630;11.018;2022-08-19T07:56:17;23.50;86.70
7232;DHT22;3657;49.630;11.018;2022-08-19T07:58:46;23.50;85.70
7232;DHT22;3657;49.630;11.018;2022-08-19T08:01:16;23.50;86.40
7232;DHT22;3657;49.630;11.018;2022-08-19T08:03:43;23.40;87.70
7232;DHT22;3657;49.630;11.018;2022-08-19T08:06:28;23.50;88.00
7232;DHT22;3657;49.630;11.018;2022-08-19T08:09:17;23.40;87.90
7232;DHT22;3657;49.630;11.018;2022-08-19T08:11:50;23.40;87.20
7232;DHT22;3657;49.630;11.018;2022-08-19T08:14:18;23.50;87.70
7232;DHT22;3657;49.630;11.018;2022-08-19T08:16:46;23.50;86.70
7232;DHT22;3657;49.630;11.018;2022-08-19T08:19:17;23.60;87.50
7232;DHT22;3657;49.630;11.018;2022-08-19T08:21:44;23.60;87.10
7232;DHT22;3657;49.630;11.018;2022-08-19T08:24:11;23.60;87.70
7232;DHT22;3657;49.630;11.018;2022-08-19T08:26:40;23.70;87.40
7232;DHT22;3657;49.630;11.018;2022-08-19T08:29:07;23.70;87.30
7232;DHT22;3657;49.630;11.018;2022-08-19T08:31:35;23.80;88.00
7232;DHT22;3657;49.630;11.018;2022-08-19T08:34:02;23.80;87.40
7232;DHT22;3657;49.630;11.018;2022-08-19T08:36:29;23.80;88.10
7232;DHT22;3657;49.630;11.018;2022-08-19T08:38:58;23.80;88.60
7232;DHT22;3657;49.630;11.018;2022-08-19T08:41:31;23.80;89.40
7232;DHT22;3657;49.630;11.018;2022-08-19T08:44:03;23.70;88.80
7232;DHT22;3657;49.630;11.018;2022-08-19T08:46:35;23.70;88.80
7232;DHT22;3657;49.630;11.018;2022-08-19T08:49:09;23.70;89.30
7232;DHT22;3657;49.630;11.018;2022-08-19T08:51:42;23.70;90.00
7232;DHT22;3657;49.630;11.018;2022-08-19T08:54:12;23.70;90.30
7232;DHT22;3657;49.630;11.018;2022-08-19T08:56:40;23.60;90.30
7232;DHT22;3657;49.630;11.018;2022-08-19T08:59:16;23.60;90.60
7232;DHT22;3657;49.630;11.018;2022-08-19T09:01:44;23.60;90.90
7232;DHT22;3657;49.630;11.018;2022-08-19T09:04:12;23.60;91.30
7232;DHT22;3657;49.630;11.018;2022-08-19T09:06:47;23.60;91.00
7232;DHT22;3657;49.630;11.018;2022-08-19T09:09:20;23.60;91.30
7232;DHT22;3657;49.630;11.018;2022-08-19T09:11:56;23.50;91.30
7232;DHT22;3657;49.630;11.018;2022-08-19T09:14:37;23.60;91.70
7232;DHT22;3657;49.630;11.018;2022-08-19T09:17:07;23.60;91.90
7232;DHT22;3657;49.630;11.018;2022-08-19T09:19:35;23.60;91.70
7232;DHT22;3657;49.630;11.018;2022-08-19T09:22:02;23.70;91.80
7232;DHT22;3657;49.630;11.018;2022-08-19T09:24:30;23.70;91.60
7232;DHT22;3657;49.630;11.018;2022-08-19T09:26:57;23.80;91.70
7232;DHT22;3657;49.630;11.018;2022-08-19T09:29:23;23.80;91.70
7232;DHT22;3657;49.630;11.018;2022-08-19T09:31:52;23.80;91.60
7232;DHT22;3657;49.630;11.018;2022-08-19T09:34:19;23.80;91.50
7232;DHT22;3657;49.630;11.018;2022-08-19T09:36:46;23.80;91.70
7232;DHT22;3657;49.630;11.018;2022-08-19T09:39:14;23.70;91.70
7232;DHT22;3657;49.630;11.018;2022-08-19T09:41:41;23.80;91.80
7232;DHT22;3657;49.630;11.018;2022-08-19T09:44:08;23.80;91.80
7232;DHT22;3657;49.630;11.018;2022-08-19T09:46:37;23.80;91.60
7232;DHT22;3657;49.630;11.018;2022-08-19T09:49:05;23.80;91.70
7232;DHT22;3657;49.630;11.018;2022-08-19T09:51:32;23.90;91.90
7232;DHT22;3657;49.630;11.018;2022-08-19T09:54:00;23.90;91.60
7232;DHT22;3657;49.630;11.018;2022-08-19T09:56:27;23.90;91.60
7232;DHT22;3657;49.630;11.018;2022-08-19T09:58:57;23.90;91.60
7232;DHT22;3657;49.630;11.018;2022-08-19T10:01:25;23.90;91.60
7232;DHT22;3657;49.630;11.018;2022-08-19T10:03:54;24.00;91.70
7232;DHT22;3657;49.630;11.018;2022-08-19T10:06:24;23.90;91.60
7232;DHT22;3657;49.630;11.018;2022-08-19T10:08:52;23.90;91.80
7232;DHT22;3657;49.630;11.018;2022-08-19T10:11:19;23.80;92.00
7232;DHT22;3657;49.630;11.018;2022-08-19T10:13:47;23.80;91.80
7232;DHT22;3657;49.630;11.018;2022-08-19T10:16:17;23.80;92.00
7232;DHT22;3657;49.630;11.018;2022-08-19T10:18:45;23.80;91.80
7232;DHT22;3657;49.630;11.018;2022-08-19T10:21:15;23.80;92.00
7232;DHT22;3657;49.630;11.018;2022-08-19T10:23:45;23.90;91.90
7232;DHT22;3657;49.630;11.018;2022-08-19T10:26:15;23.80;91.90
7232;DHT22;3657;49.630;11.018;2022-08-19T10:28:43;23.90;91.70
7232;DHT22;3657;49.630;11.018;2022-08-19T10:31:11;23.90;92.00
7232;DHT22;3657;49.630;11.018;2022-08-19T10:33:39;23.90;91.90
7232;DHT22;3657;49.630;11.018;2022-08-19T10:36:08;23.90;91.90
7232;DHT22;3657;49.630;11.018;2022-08-19T10:38:36;24.00;91.80
7232;DHT22;3657;49.630;11.018;2022-08-19T10:41:12;23.90;91.90
7232;DHT22;3657;49.630;11.018;2022-08-19T10:43:40;23.90;92.10
7232;DHT22;3657;49.630;11.018;2022-08-19T10:46:08;23.90;92.20
7232;DHT22;3657;49.630;11.018;2022-08-19T10:48:35;23.90;92.20
7232;DHT22;3657;49.630;11.018;2022-08-19T10:51:02;23.80;92.30
7232;DHT22;3657;49.630;11.018;2022-08-19T10:53:46;23.90;92.30
7232;DHT22;3657;49.630;11.018;2022-08-19T10:56:14;24.00;92.00
7232;DHT22;3657;49.630;11.018;2022-08-19T10:58:59;24.00;92.00
7232;DHT22;3657;49.630;11.018;2022-08-19T11:01:28;24.00;91.90
7232;DHT22;3657;49.630;11.018;2022-08-19T11:03:56;24.10;92.10
7232;DHT22;3657;49.630;11.018;2022-08-19T11:06:23;24.00;91.90
7232;DHT22;3657;49.630;11.018;2022-08-19T11:08:51;24.00;91.90
7232;DHT22;3657;49.630;11.018;2022-08-19T11:11:19;24.00;91.80
7232;DHT22;3657;49.630;11.018;2022-08-19T11:13:47;24.00;92.10
7232;DHT22;3657;49.630;11.018;2022-08-19T11:16:17;24.00;91.80
7232;DHT22;3657;49.630;11.018;2022-08-19T11:18:46;24.00;92.00
7232;DHT22;3657;49.630;11.018;2022-08-19T11:21:15;24.10;92.00
7232;DHT22;3657;49.630;11.018;2022-08-19T11:23:44;24.10;91.80
7232;DHT22;3657;49.630;11.018;2022-08-19T11:26:12;24.10;91.80
7232;DHT22;3657;49.630;11.018;2022-08-19T11:28:41;24.10;91.80
7232;DHT22;3657;49.630;11.018;2022-08-19T11:31:10;24.10;91.70
7232;DHT22;3657;49.630;11.018;2022-08-19T11:33:37;24.10;91.80
7232;DHT22;3657;49.630;11.018;2022-08-19T11:36:04;24.10;91.70
7232;DHT22;3657;49.630;11.018;2022-08-19T11:38:31;24.10;91.80
7232;DHT22;3657;49.630;11.018;2022-08-19T11:40:59;24.00;91.80
7232;DHT22;3657;49.630;11.018;2022-08-19T11:43:27;24.10;91.80
7232;DHT22;3657;49.630;11.018;2022-08-19T11:45:55;24.00;92.00
7232;DHT22;3657;49.630;11.018;2022-08-19T11:48:24;24.00;91.90
7232;DHT22;3657;49.630;11.018;2022-08-19T11:50:52;24.00;92.10
7232;DHT22;3657;49.630;11.018;2022-08-19T11:53:21;24.00;91.90
7232;DHT22;3657;49.630;11.018;2022-08-19T11:55:48;24.00;91.80
7232;DHT22;3657;49.630;11.018;2022-08-19T11:58:16;24.00;91.80
7232;DHT22;3657;49.630;11.018;2022-08-19T12:00:44;24.10;91.90
7232;DHT22;3657;49.630;11.018;2022-08-19T12:03:12;24.10;91.90
7232;DHT22;3657;49.630;11.018;2022-08-19T12:05:40;24.10;91.90
7232;DHT22;3657;49.630;11.018;2022-08-19T12:08:08;24.10;91.80
7232;DHT22;3657;49.630;11.018;2022-08-19T12:10:35;24.10;91.90
7232;DHT22;3657;49.630;11.018;2022-08-19T12:13:02;24.00;92.90
7232;DHT22;3657;49.630;11.018;2022-08-19T12:15:29;24.00;92.20
7232;DHT22;3657;49.630;11.018;2022-08-19T12:17:57;24.00;92.10
7232;DHT22;3657;49.630;11.018;2022-08-19T12:20:25;24.00;92.50
7232;DHT22;3657;49.630;11.018;2022-08-19T12:22:52;24.00;92.10
7232;DHT22;3657;49.630;11.018;2022-08-19T12:25:18;24.00;92.10
7232;DHT22;3657;49.630;11.018;2022-08-19T12:27:46;24.00;92.10
7232;DHT22;3657;49.630;11.018;2022-08-19T12:30:13;24.00;92.00
7232;DHT22;3657;49.630;11.018;2022-08-19T12:32:40;24.00;92.00
7232;DHT22;3657;49.630;11.018;2022-08-19T12:35:08;24.00;92.10
7232;DHT22;3657;49.630;11.018;2022-08-19T12:37:38;24.00;92.00
7232;DHT22;3657;49.630;11.018;2022-08-19T12:40:11;24.00;92.10
7232;DHT22;3657;49.630;11.018;2022-08-19T12:42:38;24.00;92.10
7232;DHT22;3657;49.630;11.018;2022-08-19T12:45:08;24.00;92.20
7232;DHT22;3657;49.630;11.018;2022-08-19T12:47:35;23.90;92.20
7232;DHT22;3657;49.630;11.018;2022-08-19T12:50:02;23.90;92.20
7232;DHT22;3657;49.630;11.018;2022-08-19T12:52:29;23.90;92.40
7232;DHT22;3657;49.630;11.018;2022-08-19T12:54:58;23.90;92.40
7232;DHT22;3657;49.630;11.018;2022-08-19T12:57:26;23.90;92.40
7232;DHT22;3657;49.630;11.018;2022-08-19T12:59:53;23.90;92.40
7232;DHT22;3657;49.630;11.018;2022-08-19T13:02:20;23.90;92.40
7232;DHT22;3657;49.630;11.018;2022-08-19T13:04:47;23.90;92.50
7232;DHT22;3657;49.630;11.018;2022-08-19T13:07:14;23.90;92.60
7232;DHT22;3657;49.630;11.018;2022-08-19T13:09:41;23.80;92.50
7232;DHT22;3657;49.630;11.018;2022-08-19T13:12:09;23.80;92.60
7232;DHT22;3657;49.630;11.018;2022-08-19T13:14:38;23.80;92.70
7232;DHT22;3657;49.630;11.018;2022-08-19T13:17:06;23.80;92.70
7232;DHT22;3657;49.630;11.018;2022-08-19T13:19:36;23.80;92.70
7232;DHT22;3657;49.630;11.018;2022-08-19T13:22:02;23.80;92.70
7232;DHT22;3657;49.630;11.018;2022-08-19T13:24:29;23.80;92.70
7232;DHT22;3657;49.630;11.018;2022-08-19T13:26:56;23.80;92.70
7232;DHT22;3657;49.630;11.018;2022-08-19T13:29:24;23.80;92.80
7232;DHT22;3657;49.630;11.018;2022-08-19T13:32:08;23.80;92.80
7232;DHT22;3657;49.630;11.018;2022-08-19T13:34:52;23.80;92.80
7232;DHT22;3657;49.630;11.018;2022-08-19T13:37:19;23.80;92.80
7232;DHT22;3657;49.630;11.018;2022-08-19T13:40:07;23.80;92.90
7232;DHT22;3657;49.630;11.018;2022-08-19T13:42:38;23.80;93.30
7232;DHT22;3657;49.630;11.018;2022-08-19T13:45:07;23.80;94.50
7232;DHT22;3657;49.630;11.018;2022-08-19T13:47:34;23.70;95.50
7232;DHT22;3657;49.630;11.018;2022-08-19T13:50:02;23.60;94.90
7232;DHT22;3657;49.630;11.018;2022-08-19T13:52:29;23.60;94.50
7232;DHT22;3657;49.630;11.018;2022-08-19T13:54:56;23.50;94.60
7232;DHT22;3657;49.630;11.018;2022-08-19T13:57:23;23.40;95.30
7232;DHT22;3657;49.630;11.018;2022-08-19T13:59:50;23.40;95.40
7232;DHT22;3657;49.630;11.018;2022-08-19T14:02:18;23.30;95.50
7232;DHT22;3657;49.630;11.018;2022-08-19T14:04:44;23.30;95.30
7232;DHT22;3657;49.630;11.018;2022-08-19T14:07:11;23.20;95.70
7232;DHT22;3657;49.630;11.018;2022-08-19T14:09:38;23.20;95.00
7232;DHT22;3657;49.630;11.018;2022-08-19T14:12:05;23.20;95.40
7232;DHT22;3657;49.630;11.018;2022-08-19T14:14:32;23.20;94.80
7232;DHT22;3657;49.630;11.018;2022-08-19T14:17:05;23.30;94.80
7232;DHT22;3657;49.630;11.018;2022-08-19T14:19:33;23.30;94.70
7232;DHT22;3657;49.630;11.018;2022-08-19T14:22:00;23.40;94.60
7232;DHT22;3657;49.630;11.018;2022-08-19T14:24:27;23.40;94.50
7232;DHT22;3657;49.630;11.018;2022-08-19T14:26:54;23.40;94.60
7232;DHT22;3657;49.630;11.018;2022-08-19T14:29:20;23.40;94.30
7232;DHT22;3657;49.630;11.018;2022-08-19T14:31:47;23.40;94.70
7232;DHT22;3657;49.630;11.018;2022-08-19T14:34:14;23.40;94.40
7232;DHT22;3657;49.630;11.018;2022-08-19T14:36:42;23.50;94.30
7232;DHT22;3657;49.630;11.018;2022-08-19T14:39:10;23.50;94.80
7232;DHT22;3657;49.630;11.018;2022-08-19T14:41:40;23.50;94.20
7232;DHT22;3657;49.630;11.018;2022-08-19T14:44:07;23.50;94.10
7232;DHT22;3657;49.630;11.018;2022-08-19T14:46:38;23.50;94.10
7232;DHT22;3657;49.630;11.018;2022-08-19T14:49:05;23.50;94.20
7232;DHT22;3657;49.630;11.018;2022-08-19T14:51:32;23.50;94.30
7232;DHT22;3657;49.630;11.018;2022-08-19T14:54:01;23.50;94.30
7232;DHT22;3657;49.630;11.018;2022-08-19T14:56:28;23.40;94.10
7232;DHT22;3657;49.630;11.018;2022-08-19T14:58:55;23.40;94.20
7232;DHT22;3657;49.630;11.018;2022-08-19T15:01:25;23.40;94.20
7232;DHT22;3657;49.630;11.018;2022-08-19T15:03:52;23.40;94.20
7232;DHT22;3657;49.630;11.018;2022-08-19T15:06:19;23.50;94.20
7232;DHT22;3657;49.630;11.018;2022-08-19T15:08:46;23.40;94.20
7232;DHT22;3657;49.630;11.018;2022-08-19T15:11:17;23.40;94.20
7232;DHT22;3657;49.630;11.018;2022-08-19T15:13:46;23.40;94.30
7232;DHT22;3657;49.630;11.018;2022-08-19T15:16:13;23.40;94.30
7232;DHT22;3657;49.630;11.018;2022-08-19T15:18:41;23.40;94.30
7232;DHT22;3657;49.630;11.018;2022-08-19T15:21:10;23.40;94.40
7232;DHT22;3657;49.630;11.018;2022-08-19T15:23:38;23.40;94.40
7232;DHT22;3657;49.630;11.018;2022-08-19T15:26:05;23.40;94.40
7232;DHT22;3657;49.630;11.018;2022-08-19T15:28:35;23.30;94.40
7232;DHT22;3657;49.630;11.018;2022-08-19T15:31:02;23.30;94.50
7232;DHT22;3657;49.630;11.018;2022-08-19T15:33:30;23.30;94.50
7232;DHT22;3657;49.630;11.018;2022-08-19T15:35:57;23.30;94.60
7232;DHT22;3657;49.630;11.018;2022-08-19T15:38:24;23.30;94.60
7232;DHT22;3657;49.630;11.018;2022-08-19T15:40:51;23.30;94.60
7232;DHT22;3657;49.630;11.018;2022-08-19T15:43:19;23.20;94.60
7232;DHT22;3657;49.630;11.018;2022-08-19T15:45:48;23.30;94.70
7232;DHT22;3657;49.630;11.018;2022-08-19T15:48:15;23.20;94.70
7232;DHT22;3657;49.630;11.018;2022-08-19T15:50:42;23.20;94.70
7232;DHT22;3657;49.630;11.018;2022-08-19T15:53:09;23.20;94.70